This is the latest recevied weather packets stored in our database for station/object TA1BE-13. If no packets are shown the sender has not sent any weather packets the latest 10 day(s).
| Time | Temp. | Humidity | Pressure | Rain* | Wind** | Luminosity | Snow |
|---|---|---|---|---|---|---|---|
| 1778167803 | 20.56° C | 56% | 1017 hPa | - | 4.47 m/s, 245° | - | - |
| 1778166003 | 20.56° C | 56% | 1017 hPa | - | 4.47 m/s, 245° | - | - |
| 1778164202 | 20.56° C | 56% | 1017 hPa | - | 4.47 m/s, 245° | - | - |
| 1778162403 | 20.56° C | 56% | 1017 hPa | - | 4.47 m/s, 245° | - | - |
| 1778160603 | 20.56° C | 56% | 1017 hPa | - | 4.47 m/s, 245° | - | - |
| 1778158803 | 20.56° C | 56% | 1017 hPa | - | 4.47 m/s, 245° | - | - |
| 1778157003 | 20.56° C | 56% | 1017 hPa | - | 4.47 m/s, 245° | - | - |
| 1778155203 | 20.56° C | 56% | 1018 hPa | - | 4.47 m/s, 245° | - | - |
| 1778153403 | 20.56° C | 56% | 1018 hPa | - | 4.47 m/s, 245° | - | - |
| 1778151603 | 20.56° C | 56% | 1018 hPa | - | 4.47 m/s, 245° | - | - |
| 1778149803 | 20.56° C | 56% | 1018 hPa | - | 4.47 m/s, 245° | - | - |
| 1778148003 | 20.56° C | 56% | 1018 hPa | - | 4.47 m/s, 245° | - | - |
| 1778104803 | 11.11° C | 78% | 1018 hPa | - | 2.24 m/s, 60° | - | - |
| 1778103003 | 11.11° C | 78% | 1018 hPa | - | 2.24 m/s, 60° | - | - |
| 1778101203 | 11.11° C | 78% | 1018 hPa | - | 2.24 m/s, 60° | - | - |
| 1778099403 | 11.11° C | 78% | 1018 hPa | - | 2.24 m/s, 60° | - | - |
| 1778097603 | 11.11° C | 78% | 1018 hPa | - | 2.24 m/s, 60° | - | - |
| 1778095803 | 11.11° C | 78% | 1018 hPa | - | 2.24 m/s, 60° | - | - |
| 1778094003 | 12.22° C | 79% | 1017 hPa | - | 2.24 m/s, 57° | - | - |
| 1778092203 | 12.22° C | 79% | 1017 hPa | - | 1.79 m/s, 68° | - | - |
| 1778090404 | 13.89° C | 76% | 1017 hPa | - | 2.68 m/s, 61° | - | - |
| 1778088603 | 14.44° C | 75% | 1017 hPa | - | 2.68 m/s, 61° | - | - |
| 1778086802 | 16.11° C | 70% | 1016 hPa | - | 2.68 m/s, 70° | - | - |
| 1778085003 | 17.78° C | 63% | 1016 hPa | - | 2.68 m/s, 77° | - | - |
| 1778083204 | 17.78° C | 63% | 1016 hPa | - | 2.68 m/s, 77° | - | - |
* Rain since midnight (hover to see other rain measurements)
** Current wind speed in m/s (hover to see current wind gust speed)